createdAt,value
2018-08-31T00:02:14.101Z,48.96
2018-08-31T00:04:53.514Z,48.08
2018-08-31T00:07:34.162Z,48.14
2018-08-31T00:11:16.483Z,48.87
2018-08-31T00:13:44.754Z,48.45
2018-08-31T00:16:13.037Z,48.71
2018-08-31T00:18:41.318Z,49.07
2018-08-31T00:21:09.711Z,48.33
2018-08-31T00:25:50.134Z,48.33
2018-08-31T00:28:21.174Z,48.66
2018-08-31T00:31:00.582Z,48.36
2018-08-31T00:33:48.643Z,48.57
2018-08-31T00:38:28.029Z,48.27
2018-08-31T00:41:10.605Z,47.97
2018-08-31T00:43:50.122Z,49.39
2018-08-31T00:46:18.482Z,48.70
2018-08-31T00:48:46.782Z,48.98
2018-08-31T00:51:15.086Z,49.16
2018-08-31T00:53:43.378Z,49.18
2018-08-31T00:56:11.790Z,48.89
2018-08-31T00:58:40.055Z,48.28
2018-08-31T01:01:08.334Z,48.65
2018-08-31T01:03:36.613Z,48.79
2018-08-31T01:06:04.953Z,48.25
2018-08-31T01:08:33.262Z,48.55
2018-08-31T01:11:01.621Z,48.32
2018-08-31T01:13:29.962Z,48.43
2018-08-31T01:15:58.474Z,49.14
2018-08-31T01:18:26.779Z,48.83
2018-08-31T01:20:55.077Z,48.41
2018-08-31T01:23:23.389Z,49.07
2018-08-31T01:25:51.817Z,48.71
2018-08-31T01:28:20.086Z,48.35
2018-08-31T01:30:48.441Z,49.12
2018-08-31T01:33:16.766Z,49.45
2018-08-31T01:35:45.079Z,48.75
2018-08-31T01:38:13.365Z,48.45
2018-08-31T01:40:41.674Z,48.83
2018-08-31T01:43:10.018Z,48.35
2018-08-31T01:45:38.343Z,48.80
2018-08-31T01:48:06.733Z,48.38
2018-08-31T01:50:34.990Z,48.71
2018-08-31T01:53:03.362Z,48.58
2018-08-31T01:55:32.738Z,48.23
2018-08-31T01:58:01.953Z,48.81
2018-08-31T02:00:30.261Z,49.43
2018-08-31T02:02:58.600Z,49.26
2018-08-31T02:05:26.934Z,48.42
2018-08-31T02:07:55.226Z,48.24
2018-08-31T02:10:23.506Z,48.43
2018-08-31T02:12:51.814Z,48.81
2018-08-31T02:15:20.094Z,48.47
2018-08-31T02:17:48.434Z,48.51
2018-08-31T02:20:16.769Z,49.09
2018-08-31T02:22:45.070Z,48.46
2018-08-31T02:25:13.350Z,48.89
2018-08-31T02:27:41.653Z,49.35
2018-08-31T02:30:09.928Z,48.26
2018-08-31T02:32:38.309Z,49.25
2018-08-31T02:35:06.630Z,49.32
2018-08-31T02:37:35.481Z,49.28
2018-08-31T02:40:03.786Z,49.59
2018-08-31T02:42:32.134Z,49.31
2018-08-31T02:45:00.440Z,48.30
2018-08-31T02:47:28.759Z,48.59
2018-08-31T02:49:57.026Z,48.55
2018-08-31T02:52:25.375Z,48.80
2018-08-31T02:54:53.685Z,48.65
2018-08-31T02:57:22.018Z,49.31
2018-08-31T02:59:50.339Z,49.19
2018-08-31T03:02:18.729Z,48.53
2018-08-31T03:04:47.055Z,49.02
2018-08-31T03:07:15.378Z,49.24
2018-08-31T03:09:43.698Z,48.84
2018-08-31T03:12:12.070Z,48.99
2018-08-31T03:14:40.367Z,48.64
2018-08-31T03:17:08.766Z,48.71
2018-08-31T03:19:37.102Z,48.97
2018-08-31T03:22:05.425Z,48.71
2018-08-31T03:24:33.761Z,48.52
2018-08-31T03:27:02.119Z,48.70
2018-08-31T03:29:30.530Z,49.34
2018-08-31T03:31:58.883Z,49.43
2018-08-31T03:34:27.282Z,49.42
2018-08-31T03:36:55.630Z,49.26
2018-08-31T03:39:24.067Z,49.40
2018-08-31T03:41:52.386Z,48.54
2018-08-31T03:44:20.700Z,49.14
2018-08-31T03:46:49.057Z,49.38
2018-08-31T03:49:17.622Z,48.55
2018-08-31T03:51:46.039Z,48.30
2018-08-31T03:54:14.488Z,49.30
2018-08-31T03:56:42.798Z,48.55
2018-08-31T03:59:11.469Z,49.03
2018-08-31T04:01:39.819Z,48.75
2018-08-31T04:04:08.134Z,48.84
2018-08-31T04:06:36.455Z,49.78
2018-08-31T04:09:06.300Z,49.62
2018-08-31T04:11:34.702Z,49.85
2018-08-31T04:14:03.070Z,50.24
2018-08-31T04:16:31.426Z,50.04
2018-08-31T04:19:04.242Z,49.56
2018-08-31T04:21:32.714Z,49.90
2018-08-31T04:24:01.038Z,50.45
2018-08-31T04:26:29.328Z,49.61
2018-08-31T04:28:57.647Z,49.63
2018-08-31T04:31:26.006Z,50.39
2018-08-31T04:33:54.348Z,49.82
2018-08-31T04:36:22.714Z,49.97
2018-08-31T04:38:51.047Z,49.58
2018-08-31T04:41:19.486Z,49.71
2018-08-31T04:43:47.836Z,49.88
2018-08-31T04:46:16.151Z,49.55
2018-08-31T04:48:44.960Z,49.92
2018-08-31T04:51:13.267Z,50.33
2018-08-31T04:53:41.588Z,49.25
2018-08-31T04:56:09.901Z,50.59
2018-08-31T04:58:38.246Z,49.96
2018-08-31T05:01:06.554Z,50.18
2018-08-31T05:03:34.928Z,49.56
2018-08-31T05:06:03.310Z,49.72
2018-08-31T05:08:31.622Z,50.42
2018-08-31T05:10:59.964Z,49.59
2018-08-31T05:13:28.333Z,49.53
2018-08-31T05:15:56.737Z,49.62
2018-08-31T05:18:25.059Z,49.47
2018-08-31T05:20:53.374Z,50.36
2018-08-31T05:23:21.690Z,49.44
2018-08-31T05:25:49.974Z,50.29
2018-08-31T05:28:18.370Z,49.80
2018-08-31T05:35:45.989Z,50.55
2018-08-31T05:38:14.343Z,49.93
2018-08-31T05:40:42.679Z,50.47
2018-08-31T05:43:11.066Z,50.34
2018-08-31T05:45:39.390Z,49.99
2018-08-31T05:48:07.750Z,49.97
2018-08-31T05:50:36.051Z,49.41
2018-08-31T05:53:04.373Z,49.61
2018-08-31T05:55:32.670Z,49.63
2018-08-31T05:58:01.192Z,50.03
2018-08-31T06:00:29.698Z,49.42
2018-08-31T06:02:58.064Z,50.58
2018-08-31T06:05:26.571Z,49.88
2018-08-31T06:07:54.922Z,50.23
2018-08-31T06:10:23.378Z,50.74
2018-08-31T06:12:51.722Z,51.10
2018-08-31T06:15:20.811Z,51.22
2018-08-31T06:17:49.111Z,52.07
2018-08-31T06:20:17.454Z,51.38
2018-08-31T06:22:45.786Z,51.17
2018-08-31T06:25:14.142Z,51.79
2018-08-31T06:27:42.715Z,50.93
2018-08-31T06:30:11.053Z,51.30
2018-08-31T06:32:39.405Z,51.00
2018-08-31T06:35:07.826Z,51.21
2018-08-31T06:37:36.155Z,51.35
2018-08-31T06:40:04.720Z,50.84
2018-08-31T06:42:33.044Z,50.71
2018-08-31T06:45:01.378Z,50.82
2018-08-31T06:47:29.740Z,50.75
2018-08-31T06:49:58.134Z,50.49
2018-08-31T06:52:26.458Z,51.14
2018-08-31T06:54:54.838Z,50.43
2018-08-31T06:57:23.470Z,51.04
2018-08-31T06:59:51.850Z,50.88
2018-08-31T07:02:20.174Z,50.35
2018-08-31T07:04:48.490Z,51.19
2018-08-31T07:07:16.854Z,51.21
2018-08-31T07:09:45.209Z,51.14
2018-08-31T07:12:13.582Z,50.93
2018-08-31T07:14:41.894Z,50.45
2018-08-31T07:17:10.228Z,51.13
2018-08-31T07:19:38.554Z,50.64
2018-08-31T07:22:06.949Z,50.44
2018-08-31T07:24:35.289Z,50.42
2018-08-31T07:27:03.622Z,50.94
2018-08-31T07:29:31.935Z,50.58
2018-08-31T07:32:00.267Z,50.78
2018-08-31T07:34:28.601Z,50.98
2018-08-31T07:36:56.948Z,50.26
2018-08-31T07:39:25.290Z,50.98
2018-08-31T07:41:53.607Z,51.03
2018-08-31T07:44:21.951Z,50.35
2018-08-31T07:46:50.299Z,51.13
2018-08-31T07:49:18.622Z,51.06
2018-08-31T07:51:46.970Z,50.77
2018-08-31T07:54:15.308Z,50.82
2018-08-31T07:56:43.702Z,50.92
2018-08-31T07:59:12.010Z,50.02
2018-08-31T08:01:40.349Z,50.82
2018-08-31T08:04:08.681Z,49.88
2018-08-31T08:06:37.071Z,50.08
2018-08-31T08:09:07.495Z,49.89
2018-08-31T08:11:35.813Z,49.84
2018-08-31T08:14:04.153Z,49.58
2018-08-31T08:16:32.555Z,50.70
2018-08-31T08:19:00.954Z,49.73
2018-08-31T08:21:30.082Z,49.57
2018-08-31T08:23:58.438Z,50.06
2018-08-31T08:26:26.783Z,49.53
2018-08-31T08:28:55.164Z,50.13
2018-08-31T08:31:23.534Z,50.01
2018-08-31T08:33:51.898Z,49.77
2018-08-31T08:36:20.415Z,49.32
2018-08-31T08:38:48.845Z,49.46
2018-08-31T08:41:17.242Z,50.24
2018-08-31T08:43:45.715Z,50.22
2018-08-31T08:46:14.063Z,49.25
2018-08-31T08:48:42.639Z,50.51
2018-08-31T08:51:10.792Z,49.39
2018-08-31T08:53:39.127Z,49.64
2018-08-31T08:56:07.765Z,50.00
2018-08-31T08:58:36.104Z,50.12
2018-08-31T09:01:04.507Z,50.39
2018-08-31T09:03:32.834Z,49.21
2018-08-31T09:06:01.138Z,49.43
2018-08-31T09:08:29.426Z,49.75
2018-08-31T09:10:57.819Z,49.61
2018-08-31T09:13:26.154Z,49.53
2018-08-31T09:15:54.463Z,49.44
2018-08-31T09:18:27.799Z,49.23
2018-08-31T09:20:56.870Z,48.96
2018-08-31T09:23:25.696Z,48.12
2018-08-31T09:25:54.791Z,47.97
2018-08-31T09:28:23.087Z,47.24
2018-08-31T09:30:51.431Z,47.01
2018-08-31T09:33:19.759Z,48.01
2018-08-31T09:35:48.079Z,47.94
2018-08-31T09:38:16.396Z,49.33
2018-08-31T09:40:44.806Z,49.89
2018-08-31T09:43:13.170Z,49.86
2018-08-31T09:45:41.491Z,50.78
2018-08-31T09:48:09.829Z,51.05
2018-08-31T09:50:38.280Z,51.03
2018-08-31T09:53:06.682Z,51.74
2018-08-31T09:55:34.983Z,52.09
2018-08-31T09:58:03.338Z,52.43
2018-08-31T10:01:35.677Z,53.28
2018-08-31T10:04:04.274Z,52.77
2018-08-31T10:06:33.838Z,52.14
2018-08-31T10:09:02.176Z,51.24
2018-08-31T10:11:30.544Z,50.41
2018-08-31T10:13:58.882Z,50.05
2018-08-31T10:16:27.267Z,50.05
2018-08-31T10:18:55.562Z,49.10
2018-08-31T10:21:23.866Z,48.81
2018-08-31T10:23:52.162Z,48.79
2018-08-31T10:26:20.516Z,48.41
2018-08-31T10:28:48.926Z,47.96
2018-08-31T10:31:17.271Z,46.43
2018-08-31T10:33:45.617Z,46.14
2018-08-31T10:36:14.071Z,46.78
2018-08-31T10:38:42.443Z,46.71
2018-08-31T10:41:10.780Z,45.66
2018-08-31T10:43:39.205Z,45.13
2018-08-31T10:46:07.606Z,45.97
2018-08-31T10:48:35.928Z,46.02
2018-08-31T10:51:04.244Z,46.13
2018-08-31T10:53:32.606Z,46.45
2018-08-31T10:56:00.971Z,46.47
2018-08-31T10:58:29.359Z,45.81
2018-08-31T11:00:57.727Z,45.88
2018-08-31T11:03:26.110Z,46.20
2018-08-31T11:05:54.440Z,46.81
2018-08-31T11:08:22.791Z,46.84
2018-08-31T11:10:51.126Z,46.46
2018-08-31T11:13:19.457Z,46.88
2018-08-31T11:15:47.816Z,46.98
2018-08-31T11:18:16.171Z,47.30
2018-08-31T11:20:44.495Z,46.52
2018-08-31T11:23:12.840Z,46.89
2018-08-31T11:25:41.226Z,47.11
2018-08-31T11:28:09.590Z,46.46
2018-08-31T11:30:37.956Z,46.28
2018-08-31T11:33:06.384Z,46.29
2018-08-31T11:35:34.707Z,46.47
2018-08-31T11:38:03.117Z,47.09
2018-08-31T11:40:31.496Z,47.09
2018-08-31T11:43:00.011Z,46.67
2018-08-31T11:45:28.358Z,47.07
2018-08-31T11:47:56.743Z,46.52
2018-08-31T11:50:25.098Z,46.76
2018-08-31T11:52:53.463Z,46.21
2018-08-31T11:55:21.884Z,46.11
2018-08-31T11:57:50.316Z,46.37
2018-08-31T12:00:18.766Z,45.67
2018-08-31T12:02:47.355Z,46.28
2018-08-31T12:05:15.749Z,45.57
2018-08-31T12:07:44.118Z,45.55
2018-08-31T12:10:12.448Z,44.74
2018-08-31T12:12:40.942Z,45.22
2018-08-31T12:15:09.458Z,45.00
2018-08-31T12:17:37.809Z,44.28
2018-08-31T12:20:06.551Z,44.55
2018-08-31T12:22:34.930Z,44.64
2018-08-31T12:25:03.367Z,45.33
2018-08-31T12:27:31.721Z,45.45
2018-08-31T12:30:00.052Z,45.51
2018-08-31T12:32:28.469Z,45.38
2018-08-31T12:34:56.828Z,45.70
2018-08-31T12:37:25.202Z,45.37
2018-08-31T12:39:53.543Z,45.70
2018-08-31T12:42:21.958Z,45.45
2018-08-31T12:44:50.462Z,45.06
2018-08-31T12:47:18.826Z,45.85
2018-08-31T12:49:47.178Z,45.38
2018-08-31T12:52:15.531Z,44.92
2018-08-31T12:54:43.910Z,45.70
2018-08-31T12:57:12.415Z,45.05
2018-08-31T12:59:44.955Z,45.49
2018-08-31T13:02:13.312Z,45.02
2018-08-31T13:04:41.692Z,45.57
2018-08-31T13:07:10.030Z,45.15
2018-08-31T13:09:38.409Z,45.89
2018-08-31T13:12:06.791Z,45.88
2018-08-31T13:14:35.162Z,45.83
2018-08-31T13:17:03.521Z,45.09
2018-08-31T13:19:31.870Z,45.24
2018-08-31T13:22:00.210Z,45.21
2018-08-31T13:24:28.594Z,45.23
2018-08-31T13:26:57.007Z,45.59
2018-08-31T13:29:25.519Z,45.50
2018-08-31T13:31:53.862Z,45.93
2018-08-31T13:34:22.696Z,45.16
2018-08-31T13:36:51.110Z,45.93
2018-08-31T13:39:19.473Z,45.62
2018-08-31T13:41:48.099Z,45.12
2018-08-31T13:44:16.472Z,45.93
2018-08-31T13:46:44.813Z,45.01
2018-08-31T13:49:13.219Z,45.80
2018-08-31T13:51:41.659Z,45.70
2018-08-31T13:54:10.043Z,44.76
2018-08-31T13:56:38.482Z,45.31
2018-08-31T13:59:06.956Z,45.12
2018-08-31T14:01:35.323Z,44.31
2018-08-31T14:04:03.693Z,44.43
2018-08-31T14:06:32.015Z,44.69
2018-08-31T14:09:00.450Z,46.26
2018-08-31T14:11:28.847Z,46.74
2018-08-31T14:13:57.220Z,48.13
2018-08-31T14:16:26.566Z,49.00
2018-08-31T14:18:55.007Z,49.20
2018-08-31T14:21:23.343Z,49.09
2018-08-31T14:23:51.758Z,48.21
2018-08-31T14:26:20.107Z,46.68
2018-08-31T14:28:48.486Z,47.11
2018-08-31T14:31:16.829Z,47.65
2018-08-31T14:33:45.166Z,46.34
2018-08-31T14:36:13.502Z,45.97
2018-08-31T14:38:41.955Z,45.82
2018-08-31T14:41:10.278Z,45.82
2018-08-31T14:43:38.655Z,44.84
2018-08-31T14:46:07.094Z,44.30
2018-08-31T14:48:35.444Z,44.78
2018-08-31T14:51:03.766Z,43.31
2018-08-31T14:53:32.123Z,43.54
2018-08-31T14:56:00.430Z,43.01
2018-08-31T14:58:29.777Z,43.66
2018-08-31T15:00:58.143Z,43.02
2018-08-31T15:03:26.451Z,42.96
2018-08-31T15:05:54.890Z,43.16
2018-08-31T15:08:23.166Z,43.59
2018-08-31T15:10:51.498Z,43.96
2018-08-31T15:13:19.829Z,43.30
2018-08-31T15:15:48.235Z,43.63
2018-08-31T15:18:16.574Z,43.54
2018-08-31T15:20:44.926Z,43.63
2018-08-31T15:23:13.322Z,44.10
2018-08-31T15:25:41.752Z,44.79
2018-08-31T15:28:10.074Z,44.03
2018-08-31T15:30:38.394Z,44.27
2018-08-31T15:33:06.734Z,44.74
2018-08-31T15:35:35.194Z,44.42
2018-08-31T15:38:03.578Z,45.19
2018-08-31T15:40:33.001Z,45.33
2018-08-31T15:43:01.338Z,45.00
2018-08-31T15:45:29.671Z,45.36
2018-08-31T15:47:58.018Z,44.98
2018-08-31T15:50:26.382Z,44.59
2018-08-31T15:52:54.750Z,45.32
2018-08-31T15:55:23.078Z,44.53
2018-08-31T15:57:51.394Z,44.53
2018-08-31T16:00:19.741Z,44.97
2018-08-31T16:02:48.028Z,45.26
2018-08-31T16:05:16.403Z,44.90
2018-08-31T16:07:44.729Z,44.76
2018-08-31T16:10:13.102Z,45.26
2018-08-31T16:12:41.403Z,45.55
2018-08-31T16:15:09.729Z,45.68
2018-08-31T16:17:38.051Z,44.97
2018-08-31T16:20:06.464Z,45.30
2018-08-31T16:22:35.666Z,45.10
2018-08-31T16:25:04.226Z,45.84
2018-08-31T16:27:32.686Z,45.15
2018-08-31T16:30:01.026Z,45.14
2018-08-31T16:32:29.330Z,45.98
2018-08-31T16:34:57.674Z,45.63
2018-08-31T16:37:25.995Z,45.32
2018-08-31T16:39:54.324Z,46.21
2018-08-31T16:42:22.670Z,45.66
2018-08-31T16:44:51.005Z,45.49
2018-08-31T16:47:19.335Z,44.83
2018-08-31T16:49:47.694Z,44.37
2018-08-31T16:52:16.010Z,44.56
2018-08-31T16:54:44.386Z,43.68
2018-08-31T16:57:12.703Z,44.13
2018-08-31T16:59:41.071Z,43.28
2018-08-31T17:02:09.498Z,43.97
2018-08-31T17:04:38.262Z,43.54
2018-08-31T17:07:06.630Z,43.80
2018-08-31T17:09:34.927Z,43.92
2018-08-31T17:12:03.278Z,43.60
2018-08-31T17:14:31.598Z,44.26
2018-08-31T17:16:59.991Z,43.60
2018-08-31T17:19:28.314Z,44.03
2018-08-31T17:21:56.664Z,44.39
2018-08-31T17:24:24.982Z,46.12
2018-08-31T17:26:58.558Z,48.04
2018-08-31T17:29:47.927Z,48.95
2018-08-31T17:32:21.664Z,48.54
2018-08-31T17:34:55.213Z,49.34
2018-08-31T17:37:28.951Z,48.19
2018-08-31T17:39:57.623Z,48.28
2018-08-31T17:42:27.410Z,48.24
2018-08-31T17:44:55.854Z,47.86
2018-08-31T17:47:24.198Z,47.46
2018-08-31T17:49:52.524Z,47.93
2018-08-31T17:52:21.047Z,48.35
2018-08-31T17:54:49.399Z,48.08
2018-08-31T17:57:17.743Z,48.48
2018-08-31T17:59:46.223Z,48.28
2018-08-31T18:02:14.683Z,48.83
2018-08-31T18:04:43.006Z,48.42
2018-08-31T18:07:11.474Z,48.11
2018-08-31T18:09:39.844Z,48.69
2018-08-31T18:12:08.197Z,48.22
2018-08-31T18:14:36.619Z,48.44
2018-08-31T18:17:05.227Z,49.38
2018-08-31T18:19:33.600Z,48.63
2018-08-31T18:22:01.983Z,48.88
2018-08-31T18:24:30.304Z,48.55
2018-08-31T18:26:58.638Z,49.26
2018-08-31T18:29:26.963Z,48.76
2018-08-31T18:31:55.335Z,48.56
2018-08-31T18:34:23.787Z,48.99
2018-08-31T18:36:52.166Z,48.53
2018-08-31T18:39:20.591Z,48.47
2018-08-31T18:41:48.937Z,48.74
2018-08-31T18:44:17.274Z,50.03
2018-08-31T18:46:45.670Z,50.63
2018-08-31T18:49:14.019Z,51.53
2018-08-31T18:51:42.394Z,51.82
2018-08-31T18:54:10.739Z,51.59
2018-08-31T18:56:39.106Z,52.22
2018-08-31T18:59:07.494Z,51.20
2018-08-31T19:01:35.801Z,51.60
2018-08-31T19:04:04.125Z,51.14
2018-08-31T19:06:32.720Z,50.37
2018-08-31T19:09:01.058Z,49.67
2018-08-31T19:11:29.417Z,49.67
2018-08-31T19:13:57.814Z,49.59
2018-08-31T19:16:26.170Z,49.27
2018-08-31T19:18:54.494Z,49.89
2018-08-31T19:21:23.578Z,49.92
2018-08-31T19:23:51.977Z,49.50
2018-08-31T19:26:20.388Z,49.29
2018-08-31T19:28:48.809Z,49.15
2018-08-31T19:31:17.274Z,49.32
2018-08-31T19:33:46.331Z,49.90
2018-08-31T19:36:14.642Z,49.05
2018-08-31T19:38:42.983Z,49.99
2018-08-31T19:41:11.377Z,49.39
2018-08-31T19:43:39.718Z,49.45
2018-08-31T19:46:08.199Z,49.88
2018-08-31T19:48:36.634Z,49.72
2018-08-31T19:51:05.039Z,49.22
2018-08-31T19:53:33.411Z,49.74
2018-08-31T19:56:01.737Z,49.56
2018-08-31T19:58:30.159Z,49.42
2018-08-31T20:00:58.526Z,49.80
2018-08-31T20:03:26.858Z,50.00
2018-08-31T20:05:55.198Z,49.08
2018-08-31T20:08:23.550Z,49.11
2018-08-31T20:10:51.938Z,49.38
2018-08-31T20:13:20.315Z,49.82
2018-08-31T20:15:48.992Z,49.74
2018-08-31T20:18:17.341Z,48.61
2018-08-31T20:20:45.670Z,49.75
2018-08-31T20:23:14.021Z,48.63
2018-08-31T20:25:42.441Z,49.31
2018-08-31T20:28:10.867Z,49.48
2018-08-31T20:30:39.182Z,49.03
2018-08-31T20:33:07.536Z,49.07
2018-08-31T20:35:35.968Z,49.60
2018-08-31T20:38:04.362Z,49.27
2018-08-31T20:40:32.758Z,48.91
2018-08-31T20:43:01.164Z,49.48
2018-08-31T20:45:29.451Z,49.01
2018-08-31T20:47:57.810Z,48.88
2018-08-31T20:50:26.174Z,49.59
2018-08-31T20:52:54.622Z,49.63
2018-08-31T20:55:22.949Z,48.93
2018-08-31T20:57:51.323Z,49.49
2018-08-31T21:00:19.665Z,49.43
2018-08-31T21:02:48.115Z,49.57
2018-08-31T21:05:16.459Z,48.54
2018-08-31T21:07:44.818Z,49.61
2018-08-31T21:10:13.159Z,48.74
2018-08-31T21:12:41.606Z,49.54
2018-08-31T21:15:09.947Z,49.48
2018-08-31T21:17:38.325Z,49.06
2018-08-31T21:20:06.715Z,48.76
2018-08-31T21:22:35.067Z,49.56
2018-08-31T21:25:03.371Z,49.18
2018-08-31T21:27:31.715Z,49.18
2018-08-31T21:30:00.060Z,48.72
2018-08-31T21:32:28.464Z,49.92
2018-08-31T21:34:56.881Z,48.97
2018-08-31T21:37:25.232Z,48.64
2018-08-31T21:39:54.158Z,48.38
2018-08-31T21:42:22.518Z,49.08
2018-08-31T21:44:50.834Z,49.39
2018-08-31T21:47:19.162Z,49.57
2018-08-31T21:49:47.539Z,49.04
2018-08-31T21:52:15.876Z,49.60
2018-08-31T21:54:44.253Z,48.74
2018-08-31T21:57:12.619Z,49.56
2018-08-31T21:59:40.986Z,49.57
2018-08-31T22:02:09.415Z,48.84
2018-08-31T22:04:37.742Z,49.63
2018-08-31T22:07:06.090Z,48.81
2018-08-31T22:09:34.446Z,49.44
2018-08-31T22:12:02.803Z,49.64
2018-08-31T22:14:31.210Z,48.83
2018-08-31T22:16:59.537Z,49.70
2018-08-31T22:19:27.938Z,49.05
2018-08-31T22:21:56.258Z,49.40
2018-08-31T22:24:24.626Z,48.90
2018-08-31T22:26:52.918Z,49.70
2018-08-31T22:29:21.251Z,48.97
2018-08-31T22:31:49.597Z,49.10
2018-08-31T22:34:18.005Z,49.05
2018-08-31T22:36:46.287Z,49.66
2018-08-31T22:39:14.634Z,49.73
2018-08-31T22:41:42.945Z,49.75
2018-08-31T22:44:11.308Z,49.72
2018-08-31T22:46:39.626Z,49.48
2018-08-31T22:49:08.038Z,49.46
2018-08-31T22:51:36.402Z,49.68
2018-08-31T22:54:04.761Z,49.38
2018-08-31T22:56:33.106Z,48.94
2018-08-31T22:59:01.447Z,49.64
2018-08-31T23:01:29.766Z,48.90
2018-08-31T23:03:58.872Z,49.40
2018-08-31T23:06:27.178Z,49.11
2018-08-31T23:08:55.482Z,49.83
2018-08-31T23:11:23.811Z,49.01
2018-08-31T23:13:59.895Z,49.73
2018-08-31T23:16:28.158Z,49.89
2018-08-31T23:18:56.483Z,48.99
2018-08-31T23:21:24.782Z,49.83
2018-08-31T23:23:53.091Z,49.38
2018-08-31T23:26:21.365Z,49.86
2018-08-31T23:28:49.662Z,49.43
2018-08-31T23:31:18.047Z,48.99
2018-08-31T23:33:46.354Z,49.03
2018-08-31T23:36:14.664Z,48.96
2018-08-31T23:38:43.006Z,49.92
2018-08-31T23:41:11.302Z,49.71
2018-08-31T23:43:39.609Z,49.36
2018-08-31T23:46:08.030Z,49.17
2018-08-31T23:48:36.359Z,49.79
2018-08-31T23:51:04.722Z,49.39
2018-08-31T23:53:33.051Z,49.65
2018-08-31T23:56:01.834Z,49.57
2018-08-31T23:58:30.166Z,49.48
